Time;durP1;ratioP1;P1;durP2;ratioP2;P2;SDS_P1;SDS_P2;PMS_P1;PMS_P2;Temp;Humidity;BMP_temperature;BMP_pressure;BME280_temperature;BME280_humidity;BME280_pressure;Samples;Min_cycle;Max_cycle;Signal;HPM_P1;HPM_P2
2021/07/13 00:01:55;;;;;;;21.75;7.42;;;;;;;17.97;80.51;98630.63;2107471;84;21103;-64
2021/07/13 00:04:56;;;;;;;19.07;7.22;;;;;;;17.98;80.63;98632.31;2107919;84;21026;-64
2021/07/13 00:07:56;;;;;;;23.40;7.65;;;;;;;17.95;80.38;98629.95;2107708;84;21013;-64
2021/07/13 00:10:57;;;;;;;19.45;7.20;;;;;;;17.92;80.34;98640.86;2107763;84;21101;-64
2021/07/13 00:13:57;;;;;;;19.73;7.35;;;;;;;17.87;80.48;98637.30;2107680;84;21483;-64
2021/07/13 00:16:57;;;;;;;17.73;7.10;;;;;;;17.79;80.38;98637.17;2107678;84;21036;-64
2021/07/13 00:19:58;;;;;;;19.48;7.30;;;;;;;17.74;80.30;98632.30;2107668;84;21056;-64
2021/07/13 00:22:58;;;;;;;19.75;7.50;;;;;;;17.73;80.26;98627.11;2107889;84;21018;-64
2021/07/13 00:25:59;;;;;;;20.23;7.42;;;;;;;17.69;80.21;98622.60;2107816;84;21037;-64
2021/07/13 00:28:59;;;;;;;21.77;8.80;;;;;;;17.64;80.15;98623.05;2107725;84;21164;-64
2021/07/13 00:32:00;;;;;;;19.17;7.47;;;;;;;17.61;80.40;98616.70;2107654;84;21515;-64
2021/07/13 00:35:00;;;;;;;22.10;8.38;;;;;;;17.53;80.31;98615.72;2107355;84;21048;-64
2021/07/13 00:38:01;;;;;;;18.87;7.53;;;;;;;17.44;80.50;98626.23;2107482;84;21045;-64
2021/07/13 00:41:01;;;;;;;20.68;7.65;;;;;;;17.31;80.54;98620.37;2108146;84;21045;-64
2021/07/13 00:44:02;;;;;;;21.40;6.72;;;;;;;17.28;80.41;98614.02;2108217;84;21090;-64
2021/07/13 00:47:02;;;;;;;22.17;7.75;;;;;;;17.25;80.58;98619.61;2107992;84;21042;-64
2021/07/13 00:50:02;;;;;;;21.82;7.05;;;;;;;17.22;80.69;98615.92;2107876;84;21568;-65
2021/07/13 00:53:03;;;;;;;18.70;6.87;;;;;;;17.27;80.69;98614.53;2107806;84;21009;-64
2021/07/13 00:56:03;;;;;;;19.25;6.75;;;;;;;17.36;80.65;98608.03;2107633;84;21097;-64
2021/07/13 00:59:04;;;;;;;21.37;8.15;;;;;;;17.36;80.16;98614.66;2107926;84;21005;-64
2021/07/13 01:02:04;;;;;;;22.55;7.40;;;;;;;17.28;80.06;98608.73;2107939;84;21110;-64
2021/07/13 01:05:05;;;;;;;18.45;7.37;;;;;;;17.23;80.33;98610.48;2107971;84;21033;-64
2021/07/13 01:08:05;;;;;;;19.73;6.70;;;;;;;17.21;80.25;98616.42;2107968;84;21624;-64
2021/07/13 01:11:07;;;;;;;17.55;6.08;;;;;;;17.20;80.25;98615.24;2107959;84;21479;-64
2021/07/13 01:14:08;;;;;;;;;;;;;;;17.18;80.30;98616.68;2110053;84;21029;-64
2021/07/13 01:17:08;;;;;;;18.57;6.33;;;;;;;17.10;80.13;98619.22;2107641;84;20144;-64
2021/07/13 01:20:08;;;;;;;23.02;7.10;;;;;;;17.04;79.96;98612.66;2107789;84;21512;-64
2021/07/13 01:23:09;;;;;;;25.10;10.55;;;;;;;16.94;79.83;98608.69;2107701;84;21101;-64
2021/07/13 01:26:09;;;;;;;22.27;8.58;;;;;;;16.87;80.13;98605.39;2107808;84;20997;-64
2021/07/13 01:29:10;;;;;;;18.32;6.80;;;;;;;16.89;80.17;98607.43;2108044;84;21088;-64
2021/07/13 01:32:10;;;;;;;19.00;6.55;;;;;;;16.87;80.11;98604.06;2108004;84;21004;-64
2021/07/13 01:35:10;;;;;;;18.00;6.15;;;;;;;16.82;80.35;98594.36;2107621;84;21073;-64
2021/07/13 01:38:11;;;;;;;18.50;5.78;;;;;;;16.75;80.05;98596.72;2107913;84;21460;-64
2021/07/13 01:41:11;;;;;;;18.40;6.37;;;;;;;16.67;80.19;98599.25;2107986;84;21511;-64
2021/07/13 01:44:12;;;;;;;18.65;6.78;;;;;;;16.62;80.30;98587.72;2107799;84;21077;-64
2021/07/13 01:47:12;;;;;;;17.92;6.30;;;;;;;16.59;80.61;98593.30;2107775;84;21052;-64
2021/07/13 01:50:13;;;;;;;19.67;6.53;;;;;;;16.61;80.39;98596.16;2107989;84;21029;-64
2021/07/13 01:53:13;;;;;;;21.30;8.78;;;;;;;16.63;80.41;98603.47;2107446;84;21109;-64
2021/07/13 01:56:14;;;;;;;19.87;7.30;;;;;;;16.58;80.56;98604.38;2107881;84;20997;-64
2021/07/13 01:59:14;;;;;;;21.70;5.67;;;;;;;16.45;80.63;98608.61;2107750;84;21611;-64
2021/07/13 02:02:15;;;;;;;19.12;6.05;;;;;;;16.26;80.36;98613.37;2107716;84;21007;-64
2021/07/13 02:05:16;;;;;;;20.08;6.70;;;;;;;16.05;80.27;98616.58;2108023;84;21001;-64
2021/07/13 02:08:16;;;;;;;25.77;8.30;;;;;;;15.94;80.70;98622.29;2108021;84;21069;-64
2021/07/13 02:11:17;;;;;;;22.58;7.87;;;;;;;16.01;80.97;98623.93;2107569;84;21076;-64
2021/07/13 02:14:17;;;;;;;20.97;7.28;;;;;;;16.03;81.35;98628.62;2107813;84;21575;-64
2021/07/13 02:17:18;;;;;;;21.33;7.90;;;;;;;16.00;81.26;98620.92;2107771;84;21056;-64
2021/07/13 02:20:19;;;;;;;22.40;7.35;;;;;;;15.99;81.53;98622.38;2107381;84;21068;-65
2021/07/13 02:23:19;;;;;;;21.95;7.90;;;;;;;15.95;81.45;98631.08;2107830;84;21013;-64
2021/07/13 02:26:20;;;;;;;20.02;7.20;;;;;;;15.98;81.56;98626.02;2108029;84;21080;-64
2021/07/13 02:29:20;;;;;;;20.70;7.72;;;;;;;15.99;81.66;98621.91;2107757;84;20998;-64
2021/07/13 02:32:20;;;;;;;20.52;8.25;;;;;;;16.06;81.67;98627.48;2107841;84;21470;-64
2021/07/13 02:35:21;;;;;;;24.30;8.88;;;;;;;16.12;81.57;98621.69;2114695;84;21534;-64
2021/07/13 02:38:21;;;;;;;22.07;8.20;;;;;;;16.10;81.41;98619.17;2117396;84;20997;-64
2021/07/13 02:41:22;;;;;;;23.42;8.70;;;;;;;16.08;81.27;98619.78;2117713;84;21009;-64
2021/07/13 02:44:22;;;;;;;21.17;9.10;;;;;;;16.07;81.26;98612.80;2117852;84;21005;-64
2021/07/13 02:47:23;;;;;;;21.00;8.33;;;;;;;16.08;81.46;98609.70;2117660;84;21083;-64
2021/07/13 02:50:23;;;;;;;23.65;8.33;;;;;;;16.07;81.29;98618.09;2117809;84;21032;-65
2021/07/13 02:53:23;;;;;;;20.52;7.53;;;;;;;16.10;81.43;98617.86;2117858;84;21499;-64
2021/07/13 02:56:24;;;;;;;20.35;6.55;;;;;;;16.19;81.42;98619.32;2117827;84;20988;-64
2021/07/13 02:59:24;;;;;;;20.65;7.20;;;;;;;16.22;81.38;98615.08;2117666;84;21023;-64
2021/07/13 03:02:25;;;;;;;21.17;7.03;;;;;;;16.28;81.39;98612.74;2117483;84;21064;-64
2021/07/13 03:05:26;;;;;;;22.65;7.55;;;;;;;16.33;81.48;98606.21;2117721;84;20977;-64
2021/07/13 03:08:26;;;;;;;21.95;7.60;;;;;;;16.34;81.29;98602.10;2117834;84;22184;-64
2021/07/13 03:11:27;;;;;;;19.87;7.35;;;;;;;16.32;81.49;98600.09;2117804;84;21035;-65
2021/07/13 03:14:27;;;;;;;21.15;8.00;;;;;;;16.33;81.55;98601.74;2117627;84;21111;-64
2021/07/13 03:17:28;;;;;;;22.93;8.15;;;;;;;16.36;81.51;98605.94;2117528;84;21008;-64
2021/07/13 03:20:28;;;;;;;19.75;6.97;;;;;;;16.41;81.66;98599.77;2117740;84;21028;-64
2021/07/13 03:23:29;;;;;;;19.00;7.00;;;;;;;16.49;81.67;98595.92;2117837;84;21035;-64
2021/07/13 03:26:29;;;;;;;18.52;6.58;;;;;;;16.58;81.32;98593.79;2117831;84;21023;-64
2021/07/13 03:29:29;;;;;;;19.07;7.05;;;;;;;16.69;81.40;98588.02;2117830;84;21622;-64
2021/07/13 03:32:30;;;;;;;19.45;6.80;;;;;;;16.83;81.16;98593.39;2117658;84;21075;-64
2021/07/13 03:35:30;;;;;;;22.98;8.03;;;;;;;16.97;81.17;98599.13;2117601;84;21091;-64
2021/07/13 03:38:31;;;;;;;19.90;6.80;;;;;;;17.08;80.84;98595.98;2117771;84;21027;-64
2021/07/13 03:41:31;;;;;;;22.10;7.45;;;;;;;17.24;80.86;98596.73;2117627;84;21071;-64
2021/07/13 03:44:31;;;;;;;20.95;7.22;;;;;;;17.41;80.52;98596.50;2117823;84;21043;-63
2021/07/13 03:47:32;;;;;;;20.37;7.10;;;;;;;17.55;80.33;98593.39;2117688;84;21508;-64
2021/07/13 03:50:33;;;;;;;22.13;7.37;;;;;;;17.70;80.17;98594.26;2117638;84;21500;-64
2021/07/13 03:53:33;;;;;;;19.80;6.80;;;;;;;17.83;79.85;98592.14;2117777;84;21074;-64
2021/07/13 03:56:34;;;;;;;26.17;7.00;;;;;;;17.90;79.77;98589.27;2118007;84;21041;-64
2021/07/13 03:59:34;;;;;;;23.05;6.35;;;;;;;18.05;79.64;98586.96;2117868;84;21004;-64
2021/07/13 04:02:35;;;;;;;22.35;7.45;;;;;;;18.11;79.20;98579.73;2117758;84;21008;-64
2021/07/13 04:05:35;;;;;;;22.98;8.23;;;;;;;18.19;79.28;98573.70;2117898;84;21534;-64
2021/07/13 04:08:36;;;;;;;21.12;7.62;;;;;;;18.35;79.53;98579.18;2117685;84;21008;-64
2021/07/13 04:11:36;;;;;;;18.98;7.20;;;;;;;18.63;79.45;98568.53;2117725;84;21028;-64
2021/07/13 04:14:37;;;;;;;18.05;6.70;;;;;;;18.78;78.45;98570.66;2117345;84;21049;-64
2021/07/13 04:17:37;;;;;;;17.82;6.08;;;;;;;18.93;78.55;98566.48;2117986;84;21017;-64
2021/07/13 04:20:38;;;;;;;18.90;6.50;;;;;;;19.14;78.21;98562.16;2117611;84;21021;-64
2021/07/13 04:23:38;;;;;;;19.55;6.85;;;;;;;19.32;77.79;98563.95;2117779;84;21539;-64
2021/07/13 04:26:38;;;;;;;26.60;11.25;;;;;;;19.47;77.51;98554.92;2117783;84;21515;-64
2021/07/13 04:29:39;;;;;;;20.32;7.70;;;;;;;19.56;77.14;98552.13;2117792;84;21020;-64
2021/07/13 04:32:39;;;;;;;20.80;7.83;;;;;;;19.71;77.11;98548.88;2117767;84;21025;-63
2021/07/13 04:35:40;;;;;;;21.75;7.95;;;;;;;19.85;76.73;98542.16;2117555;84;21025;-64
2021/07/13 04:38:41;;;;;;;19.32;7.20;;;;;;;19.97;76.60;98536.89;2117651;84;21041;-64
2021/07/13 04:41:41;;;;;;;20.57;6.50;;;;;;;20.12;76.12;98531.78;2117983;84;21123;-63
2021/07/13 04:44:42;;;;;;;20.85;7.67;;;;;;;20.17;76.03;98532.61;2117635;84;21709;-64
2021/07/13 04:47:42;;;;;;;17.80;6.65;;;;;;;20.38;75.71;98540.16;2117649;84;21004;-64
2021/07/13 04:50:43;;;;;;;17.15;6.58;;;;;;;20.50;75.68;98548.19;2117708;84;21043;-64
2021/07/13 04:53:43;;;;;;;20.00;6.70;;;;;;;20.62;74.52;98551.36;2117887;84;20996;-63
2021/07/13 04:56:44;;;;;;;19.75;7.05;;;;;;;20.58;74.32;98560.17;2117772;84;21005;-63
2021/07/13 04:59:44;;;;;;;20.85;7.47;;;;;;;20.59;75.04;98559.18;2117730;84;21550;-63
2021/07/13 05:02:45;;;;;;;22.32;7.40;;;;;;;20.46;74.75;98566.83;2117725;84;20992;-63
2021/07/13 05:05:45;;;;;;;21.62;7.03;;;;;;;20.47;75.01;98562.32;2117561;84;21029;-64
2021/07/13 05:08:46;;;;;;;22.13;7.42;;;;;;;20.66;75.61;98562.51;2117996;84;20973;-64
2021/07/13 05:11:46;;;;;;;19.48;7.62;;;;;;;21.01;75.19;98558.73;2117714;84;20961;-63
2021/07/13 05:14:47;;;;;;;20.15;8.10;;;;;;;21.22;74.74;98560.05;2117448;84;21006;-63
2021/07/13 05:17:47;;;;;;;21.05;7.83;;;;;;;21.49;74.56;98568.69;2117437;84;21540;-63
2021/07/13 05:20:50;;;;;;;19.87;7.45;;;;;;;21.65;73.45;98570.52;2117966;84;21520;-64
2021/07/13 05:23:50;;;;;;;18.52;7.20;;;;;;;21.72;72.70;98563.48;2093837;84;21036;-63
2021/07/13 05:26:50;;;;;;;20.13;7.43;;;;;;;21.84;71.94;98568.80;2118159;84;21571;-63
2021/07/13 05:29:51;;;;;;;19.52;7.28;;;;;;;22.00;73.49;98565.23;2118046;84;21025;-63
2021/07/13 05:32:52;;;;;;;18.77;7.08;;;;;;;22.23;72.64;98565.80;2117951;84;21009;-64
2021/07/13 05:35:52;;;;;;;18.23;7.55;;;;;;;22.28;72.44;98555.41;2117851;84;21112;-63
2021/07/13 05:38:53;;;;;;;20.43;7.60;;;;;;;22.36;72.57;98552.72;2118127;84;21048;-63
2021/07/13 05:41:53;;;;;;;19.40;7.50;;;;;;;22.56;71.96;98538.41;2118119;84;21507;-63
2021/07/13 05:44:55;;;;;;;17.97;7.17;;;;;;;22.80;71.21;98536.55;2118022;84;21488;-63
2021/07/13 05:47:56;;;;;;;19.40;7.65;;;;;;;22.80;71.21;98536.55;2117796;84;21108;-63
2021/07/13 05:50:56;;;;;;;19.60;7.50;;;;;;;23.11;71.11;98549.03;2118243;84;20997;-64
2021/07/13 05:53:57;;;;;;;22.07;7.87;;;;;;;23.15;71.05;98549.82;2118032;84;20988;-64
2021/07/13 05:56:59;;;;;;;19.80;7.70;;;;;;;23.07;70.27;98547.70;2118049;84;21089;-64
2021/07/13 06:00:00;;;;;;;19.82;7.83;;;;;;;22.99;70.08;98537.91;2118005;84;21104;-64
2021/07/13 06:03:00;;;;;;;17.67;6.70;;;;;;;23.09;69.65;98542.50;2118030;84;21016;-63
2021/07/13 06:06:01;;;;;;;18.37;6.87;;;;;;;23.29;69.64;98538.83;2118155;84;20981;-64
2021/07/13 06:09:01;;;;;;;19.00;6.80;;;;;;;23.59;69.72;98542.03;2118141;84;21577;-64
2021/07/13 06:12:02;;;;;;;20.03;7.07;;;;;;;23.81;68.85;98537.61;2118092;84;20993;-64
2021/07/13 06:15:02;;;;;;;18.10;7.00;;;;;;;23.84;66.59;98533.22;2118007;84;21004;-64
2021/07/13 06:18:03;;;;;;;19.93;6.73;;;;;;;23.84;66.59;98533.22;2117568;84;21101;-67
2021/07/13 06:21:05;;;;;;;22.50;7.07;;;;;;;23.66;67.77;98553.66;2111092;83;21028;-64
2021/07/13 06:24:06;;;;;;;19.98;7.72;;;;;;;23.80;67.98;98553.34;2116576;84;20991;-67
2021/07/13 06:27:06;;;;;;;19.97;7.23;;;;;;;23.91;68.11;98550.75;2106929;84;20981;-65
2021/07/13 06:30:07;;;;;;;18.60;7.53;;;;;;;23.79;66.58;98552.52;2096366;84;21031;-68
2021/07/13 06:33:07;;;;;;;18.10;7.93;;;;;;;23.60;67.12;98553.89;2118880;84;20971;-68
2021/07/13 06:36:08;;;;;;;18.73;7.50;;;;;;;23.53;67.05;98558.31;2121000;84;21036;-67
2021/07/13 06:39:09;;;;;;;17.45;6.62;;;;;;;23.61;66.96;98563.59;2118363;84;20996;-66
2021/07/13 06:42:09;;;;;;;17.30;6.63;;;;;;;23.90;67.04;98563.29;2118505;84;21542;-64
2021/07/13 06:45:10;;;;;;;18.13;7.70;;;;;;;24.19;67.34;98560.25;2111173;84;21023;-64
2021/07/13 06:48:10;;;;;;;18.83;7.73;;;;;;;24.39;66.75;98555.12;2081579;85;21048;-65
2021/07/13 06:51:11;;;;;;;20.27;8.00;;;;;;;24.55;65.77;98548.20;2098790;84;20983;-64
2021/07/13 06:54:11;;;;;;;21.13;8.93;;;;;;;24.53;65.14;98542.70;2118362;84;20987;-67
2021/07/13 06:57:12;;;;;;;19.97;8.27;;;;;;;24.48;65.27;98536.58;2116788;84;21071;-67
2021/07/13 07:00:12;;;;;;;22.20;10.23;;;;;;;24.58;65.03;98542.94;2112033;84;21494;-67
2021/07/13 07:03:13;;;;;;;21.37;8.60;;;;;;;24.54;65.14;98539.83;2118456;84;20977;-66
2021/07/13 07:06:13;;;;;;;23.20;9.40;;;;;;;24.59;63.41;98544.61;2096264;84;20965;-68
2021/07/13 07:09:14;;;;;;;26.40;9.43;;;;;;;24.64;65.24;98551.61;2081746;86;20965;-67
2021/07/13 07:12:14;;;;;;;21.20;9.13;;;;;;;24.90;65.29;98549.69;2081456;86;21037;-65
2021/07/13 07:15:15;;;;;;;23.10;8.63;;;;;;;25.16;62.85;98546.09;2091993;84;20943;-65
2021/07/13 07:18:15;;;;;;;23.60;9.40;;;;;;;24.99;63.94;98545.53;2118134;84;21521;-66
2021/07/13 07:21:16;;;;;;;21.07;9.83;;;;;;;25.20;64.68;98543.34;2103666;84;20972;-67
2021/07/13 07:24:16;;;;;;;23.15;9.80;;;;;;;25.58;63.82;98538.44;2081244;84;21591;-68
2021/07/13 07:27:17;;;;;;;20.90;9.23;;;;;;;25.72;63.56;98543.38;2118559;84;20956;-64
2021/07/13 07:30:17;;;;;;;21.00;9.40;;;;;;;25.63;62.56;98535.19;2115676;84;21003;-66
2021/07/13 07:33:18;;;;;;;21.43;10.00;;;;;;;25.70;63.60;98537.39;2081694;85;20970;-64
2021/07/13 07:36:20;;;;;;;21.80;9.30;;;;;;;25.76;62.85;98540.62;2105533;84;20981;-67
2021/07/13 07:39:20;;;;;;;23.77;10.85;;;;;;;25.88;62.58;98535.50;2106601;84;21638;-65
2021/07/13 07:42:21;;;;;;;21.40;9.33;;;;;;;25.92;63.01;98531.92;2114924;84;20992;-64
2021/07/13 07:45:21;;;;;;;22.97;9.67;;;;;;;26.37;63.31;98530.14;2115004;84;21027;-64
2021/07/13 07:48:22;;;;;;;20.30;9.57;;;;;;;26.62;61.75;98522.31;2113737;84;20993;-64
2021/07/13 07:51:22;;;;;;;21.03;10.07;;;;;;;26.82;61.57;98525.05;2114969;84;20992;-64
2021/07/13 07:54:23;;;;;;;21.17;9.60;;;;;;;26.95;61.21;98511.62;2114910;84;21554;-64
2021/07/13 07:57:23;;;;;;;18.63;8.70;;;;;;;27.07;61.10;98506.97;2096364;84;20991;-64
2021/07/13 08:00:24;;;;;;;20.60;8.80;;;;;;;27.19;60.64;98509.84;2079781;86;21398;-64
2021/07/13 08:03:24;;;;;;;21.45;9.08;;;;;;;27.22;60.46;98504.86;2079973;86;21006;-64
2021/07/13 08:06:25;;;;;;;20.07;8.50;;;;;;;27.42;60.80;98506.20;2079864;86;21035;-70
2021/07/13 08:09:25;;;;;;;17.47;8.30;;;;;;;27.57;60.22;98505.97;2079961;86;21600;-64
2021/07/13 08:12:26;;;;;;;22.03;8.13;;;;;;;27.56;60.09;98507.00;2079816;86;21019;-64
2021/07/13 08:15:26;;;;;;;17.63;7.53;;;;;;;27.68;58.83;98503.12;2080405;84;20972;-64
2021/07/13 08:18:27;;;;;;;18.67;8.23;;;;;;;27.76;58.84;98510.17;2079694;86;21019;-64
2021/07/13 08:21:27;;;;;;;17.93;7.77;;;;;;;27.94;58.67;98512.16;2079875;86;21109;-64
2021/07/13 08:24:28;;;;;;;18.67;8.13;;;;;;;27.96;58.69;98502.83;2086525;84;21051;-68
2021/07/13 08:27:29;;;;;;;19.20;8.07;;;;;;;28.30;58.59;98509.42;2079486;86;21578;-64
2021/07/13 08:30:31;;;;;;;21.62;8.65;;;;;;;28.85;58.47;98506.19;2082596;84;21046;-69
2021/07/13 08:33:31;;;;;;;;;;;;;;;28.99;56.08;98506.38;2099484;84;21010;-65
2021/07/13 08:36:31;;;;;;;18.03;7.80;;;;;;;29.08;55.67;98508.77;2107055;84;20190;-65
2021/07/13 08:39:32;;;;;;;19.53;8.60;;;;;;;29.20;56.70;98500.27;2091760;84;21591;-70
2021/07/13 08:42:32;;;;;;;18.23;8.23;;;;;;;29.36;56.22;98498.89;2066646;85;20993;-69
2021/07/13 08:45:36;;;;;;;19.00;7.87;;;;;;;29.54;55.57;98502.95;2102872;85;22227;-69
2021/07/13 08:48:36;;;;;;;18.87;8.30;;;;;;;29.62;55.61;98496.41;2102749;84;21085;-70
2021/07/13 08:51:37;;;;;;;19.87;8.60;;;;;;;29.69;54.56;98505.27;2103773;83;20977;-70
2021/07/13 08:54:38;;;;;;;18.42;8.48;;;;;;;29.87;54.87;98501.77;2111728;84;21115;-69
2021/07/13 08:57:38;;;;;;;20.87;8.50;;;;;;;30.10;53.88;98496.70;2099430;84;21587;-65
2021/07/13 09:00:38;;;;;;;19.47;8.07;;;;;;;30.24;53.69;98494.11;2097760;85;21500;-68
2021/07/13 09:03:39;;;;;;;18.00;7.83;;;;;;;30.45;53.70;98498.75;2109660;84;20961;-71
2021/07/13 09:06:39;;;;;;;17.97;7.30;;;;;;;30.57;52.91;98491.48;2111042;83;21036;-70
2021/07/13 09:09:40;;;;;;;21.00;8.27;;;;;;;30.74;52.92;98496.50;2089112;83;20997;-72
2021/07/13 09:12:40;;;;;;;19.93;7.63;;;;;;;30.94;52.85;98491.30;2072789;85;21071;-66
2021/07/13 09:15:41;;;;;;;18.30;7.47;;;;;;;31.04;52.54;98488.86;2105020;85;21067;-71
2021/07/13 09:18:41;;;;;;;19.00;7.90;;;;;;;31.04;51.17;98489.40;2105164;85;20996;-69
2021/07/13 09:21:41;;;;;;;19.30;7.90;;;;;;;31.17;51.28;98486.98;2105204;85;20988;-69
2021/07/13 09:24:42;;;;;;;20.87;9.87;;;;;;;31.11;51.37;98491.47;2102707;85;21466;-70
2021/07/13 09:27:42;;;;;;;18.43;7.33;;;;;;;30.86;51.12;98488.94;2096559;84;20985;-68
2021/07/13 09:30:43;;;;;;;18.13;7.70;;;;;;;30.84;51.32;98493.23;2069726;84;21033;-68
2021/07/13 09:33:43;;;;;;;19.90;7.73;;;;;;;30.92;48.45;98479.90;2088370;85;20983;-68
2021/07/13 09:36:43;;;;;;;20.00;8.00;;;;;;;30.98;50.98;98488.42;2110446;84;21030;-67
2021/07/13 09:39:44;;;;;;;20.07;8.43;;;;;;;30.95;48.25;98480.78;2095534;84;20993;-68
2021/07/13 09:42:44;;;;;;;18.63;8.60;;;;;;;31.04;50.62;98489.40;2091668;84;21028;-67
2021/07/13 09:45:45;;;;;;;21.20;8.13;;;;;;;31.27;50.87;98489.92;2118530;84;21527;-66
2021/07/13 09:48:45;;;;;;;20.00;8.37;;;;;;;31.47;50.58;98487.38;2117525;84;21502;-71
2021/07/13 09:51:46;;;;;;;19.33;8.20;;;;;;;31.65;49.71;98485.06;2118404;84;21020;-68
2021/07/13 09:54:46;;;;;;;19.77;8.47;;;;;;;31.44;49.95;98484.61;2116980;84;21006;-68
2021/07/13 09:57:47;;;;;;;20.43;8.28;;;;;;;31.63;49.91;98481.24;2101002;84;21028;-66
2021/07/13 10:00:48;;;;;;;18.92;8.50;;;;;;;31.75;48.96;98479.84;2118571;84;21478;-68
2021/07/13 10:03:49;;;;;;;;;;;;;;;31.97;49.30;98474.61;2120763;84;21495;-68
2021/07/13 10:06:50;;;;;;;18.63;8.37;;;;;;;32.20;47.33;98475.62;2111541;84;20136;-70
2021/07/13 10:09:50;;;;;;;18.27;8.17;;;;;;;32.29;48.25;98476.31;2108359;84;21063;-68
2021/07/13 10:12:51;;;;;;;19.10;8.23;;;;;;;32.32;46.18;98469.58;2117729;84;20971;-67
2021/07/13 10:15:52;;;;;;;19.98;8.23;;;;;;;32.35;47.69;98476.41;2115723;84;21494;-69
2021/07/13 10:18:53;;;;;;;20.45;8.33;;;;;;;32.53;47.57;98476.73;2113354;84;21035;-67
2021/07/13 10:21:53;;;;;;;21.93;8.55;;;;;;;32.68;46.91;98476.19;2116722;84;20987;-70
2021/07/13 10:24:55;;;;;;;18.80;7.83;;;;;;;32.76;46.14;98468.45;2118603;83;21495;-67
2021/07/13 10:27:56;;;;;;;18.35;7.95;;;;;;;32.99;44.76;98475.59;2118378;83;20991;-70
2021/07/13 10:30:57;;;;;;;19.75;8.10;;;;;;;33.10;45.20;98464.88;2118364;84;20990;-65
2021/07/13 10:33:58;;;;;;;18.42;7.72;;;;;;;33.33;45.79;98467.42;2118548;84;20964;-70
2021/07/13 10:36:59;;;;;;;;;;;;;;;33.46;45.14;98460.80;2113855;84;21124;-65
2021/07/13 10:39:59;;;;;;;18.50;7.85;;;;;;;33.62;43.97;98460.97;2090022;84;20105;-63
2021/07/13 10:43:01;;;;;;;18.65;7.72;;;;;;;33.74;43.18;98454.88;2099520;84;20991;-64
2021/07/13 10:46:02;;;;;;;19.82;8.03;;;;;;;33.96;43.99;98462.22;2108424;84;20976;-67
2021/07/13 10:49:02;;;;;;;;;;;;;;;34.17;43.27;98460.00;2089642;84;20989;-68
2021/07/13 10:52:03;;;;;;;20.13;6.73;;;;;;;34.36;43.69;98461.84;2074256;85;20107;-66
2021/07/13 10:55:03;;;;;;;;;;;;;;;33.95;41.27;98462.77;2107478;85;21527;-66
2021/07/13 10:58:04;;;;;;;17.70;6.70;;;;;;;33.92;41.86;98466.52;2094531;84;20153;-63
2021/07/13 11:01:04;;;;;;;;;;;;;;;34.27;41.97;98459.83;2093101;83;20992;-67
2021/07/13 11:04:04;;;;;;;17.93;6.40;;;;;;;34.59;40.12;98451.69;2082023;84;20105;-68
2021/07/13 11:07:06;;;;;;;;;;;;;;;34.77;40.85;98445.03;2116862;84;21521;-66
2021/07/13 11:10:07;;;;;;;16.50;6.33;;;;;;;34.95;39.91;98455.27;2113235;84;20126;-62
2021/07/13 11:13:07;;;;;;;;;;;;;;;35.07;39.00;98449.08;2116610;84;20984;-66
2021/07/13 11:16:08;;;;;;;16.43;6.43;;;;;;;35.41;39.99;98446.00;2114918;84;20429;-62
2021/07/13 11:19:12;;;;;;;16.02;6.25;;;;;;;35.76;39.59;98440.43;2114582;84;21027;-67
2021/07/13 11:22:10;;;;;;;18.67;6.80;;;;;;;35.85;38.44;98440.76;2087415;84;21043;-63
2021/07/13 11:25:11;;;;;;;16.60;6.42;;;;;;;36.01;38.33;98432.06;2114769;84;20999;-62
2021/07/13 11:28:11;;;;;;;18.30;6.92;;;;;;;36.11;37.44;98440.26;2098404;84;20979;-62
2021/07/13 11:31:12;;;;;;;17.70;6.50;;;;;;;36.06;37.43;98436.98;2079316;86;21054;-62
2021/07/13 11:34:14;;;;;;;19.95;7.00;;;;;;;36.06;36.21;98438.34;2079486;86;21074;-62
2021/07/13 11:37:17;;;;;;;16.73;6.40;;;;;;;36.06;37.59;98434.25;2080058;84;21035;-67
2021/07/13 11:40:16;;;;;;;16.37;6.67;;;;;;;36.07;37.54;98440.52;2053764;86;20995;-67
2021/07/13 11:43:17;;;;;;;16.70;6.53;;;;;;;35.58;37.73;98437.63;2079615;84;21586;-62
2021/07/13 11:46:17;;;;;;;17.12;6.58;;;;;;;35.21;38.59;98434.43;2079634;86;20967;-63
2021/07/13 11:49:18;;;;;;;15.15;6.35;;;;;;;35.67;38.63;98426.47;2079902;86;21059;-66
2021/07/13 11:52:19;;;;;;;14.23;6.40;;;;;;;36.02;37.73;98424.13;2079408;86;21019;-62
2021/07/13 11:55:19;;;;;;;18.02;6.53;;;;;;;36.18;37.71;98423.63;2078051;86;21090;-62
2021/07/13 11:58:19;;;;;;;16.07;6.95;;;;;;;35.70;35.79;98421.87;2079062;86;21478;-63
2021/07/13 12:01:21;;;;;;;14.98;6.53;;;;;;;35.70;35.99;98412.33;2079599;86;21601;-63
2021/07/13 12:04:22;;;;;;;19.23;6.27;;;;;;;35.83;36.14;98413.75;2087894;84;21124;-66
2021/07/13 12:07:23;;;;;;;19.52;6.60;;;;;;;35.58;36.27;98419.91;2113817;84;21007;-66
2021/07/13 12:10:24;;;;;;;17.62;6.55;;;;;;;35.05;36.17;98416.63;2102486;84;21004;-67
2021/07/13 12:13:25;;;;;;;21.17;6.37;;;;;;;35.24;37.62;98414.01;2105157;84;21039;-65
2021/07/13 12:16:26;;;;;;;16.97;6.58;;;;;;;35.62;36.46;98416.92;2114589;84;21008;-65
2021/07/13 12:19:27;;;;;;;16.30;6.58;;;;;;;35.93;35.87;98410.20;2108604;84;21633;-64
2021/07/13 12:22:28;;;;;;;18.12;6.83;;;;;;;35.89;35.94;98418.67;2114580;84;20948;-65
2021/07/13 12:25:28;;;;;;;14.87;6.22;;;;;;;36.18;35.77;98413.52;2093185;84;20987;-64
2021/07/13 12:28:29;;;;;;;17.25;6.72;;;;;;;36.02;34.90;98405.87;2094848;84;21582;-64
2021/07/13 12:31:30;;;;;;;16.02;6.17;;;;;;;35.90;35.25;98406.13;2075924;84;21009;-64
2021/07/13 12:34:31;;;;;;;20.72;6.70;;;;;;;35.59;35.70;98407.92;2083434;85;21027;-65
2021/07/13 12:37:31;;;;;;;20.77;7.85;;;;;;;35.63;35.23;98406.83;2105027;84;20980;-66
2021/07/13 12:40:32;;;;;;;18.90;6.70;;;;;;;36.00;36.03;98405.86;2107464;83;21460;-66
2021/07/13 12:43:32;;;;;;;18.55;6.78;;;;;;;36.05;34.65;98401.78;2103676;84;21494;-66
2021/07/13 12:46:33;;;;;;;15.78;6.47;;;;;;;35.56;35.19;98403.01;2108636;84;20983;-64
2021/07/13 12:49:33;;;;;;;16.65;6.72;;;;;;;35.32;35.43;98394.46;2114827;84;21007;-64
2021/07/13 12:52:33;;;;;;;19.70;7.33;;;;;;;35.00;36.02;98394.81;2090226;84;20960;-64
2021/07/13 12:55:34;;;;;;;16.37;6.58;;;;;;;34.49;36.18;98399.34;2104958;85;21087;-63
2021/07/13 12:58:35;;;;;;;19.05;7.28;;;;;;;34.13;37.37;98404.45;2113160;84;21015;-62
2021/07/13 13:01:35;;;;;;;16.70;7.25;;;;;;;34.34;37.33;98401.41;2096490;84;21523;-65
2021/07/13 13:04:35;;;;;;;17.05;6.58;;;;;;;34.88;37.50;98398.28;2100794;85;21003;-64
2021/07/13 13:07:36;;;;;;;19.15;7.40;;;;;;;35.03;37.11;98390.75;2110542;84;20997;-62
2021/07/13 13:10:37;;;;;;;17.02;6.75;;;;;;;35.24;37.31;98388.92;2106690;84;21013;-63
2021/07/13 13:13:37;;;;;;;17.55;7.12;;;;;;;35.43;36.83;98396.14;2097553;84;20990;-65
2021/07/13 13:16:38;;;;;;;19.37;7.17;;;;;;;35.76;36.81;98385.05;2092708;84;21005;-65
2021/07/13 13:19:38;;;;;;;16.23;6.95;;;;;;;36.11;36.07;98378.05;2114656;84;21527;-64
2021/07/13 13:22:39;;;;;;;16.15;7.15;;;;;;;36.12;36.13;98376.41;2096125;84;21044;-64
2021/07/13 13:25:39;;;;;;;16.07;6.58;;;;;;;36.36;36.60;98379.98;2084050;84;21021;-64
2021/07/13 13:28:40;;;;;;;18.20;6.72;;;;;;;36.38;36.37;98370.98;2085750;84;21058;-65
2021/07/13 13:31:41;;;;;;;18.23;6.42;;;;;;;36.50;34.44;98366.05;2050537;86;21036;-64
2021/07/13 13:34:41;;;;;;;18.10;7.42;;;;;;;36.53;35.53;98366.86;2050551;87;21061;-64
2021/07/13 13:40:44;;;;;;;18.15;7.28;;;;;;;36.92;35.17;98368.17;2049397;86;21048;-62
2021/07/13 13:43:44;;;;;;;17.37;7.40;;;;;;;36.54;34.42;98355.41;2075085;86;21057;-66
2021/07/13 13:46:45;;;;;;;17.42;6.62;;;;;;;36.25;34.96;98359.48;2060554;86;21526;-63
2021/07/13 13:49:45;;;;;;;18.70;7.00;;;;;;;36.41;33.92;98353.50;2075126;86;21523;-65
2021/07/13 13:52:46;;;;;;;18.35;6.62;;;;;;;36.08;34.39;98358.94;2070971;86;21068;-65
2021/07/13 13:55:46;;;;;;;17.05;6.75;;;;;;;36.11;34.28;98357.59;2072211;86;21076;-63
2021/07/13 13:58:47;;;;;;;19.15;7.00;;;;;;;36.07;34.30;98350.47;2066679;86;21018;-63
2021/07/13 14:01:47;;;;;;;17.12;6.70;;;;;;;36.35;35.25;98351.88;2073947;86;21062;-66
2021/07/13 14:04:47;;;;;;;15.75;6.87;;;;;;;36.59;34.25;98358.11;2075806;86;21036;-63